sensor_id;sensor_type;location;lat;lon;timestamp;temperature;humidity
68813;DHT22;55808;48.112;11.552;2023-03-01T00:00:35;1.00;90.10
68813;DHT22;55808;48.112;11.552;2023-03-01T00:03:00;1.00;90.10
68813;DHT22;55808;48.112;11.552;2023-03-01T00:05:26;3.60;91.30
68813;DHT22;55808;48.112;11.552;2023-03-01T00:07:54;1.00;90.10
68813;DHT22;55808;48.112;11.552;2023-03-01T00:10:20;1.00;90.10
68813;DHT22;55808;48.112;11.552;2023-03-01T00:12:45;1.00;90.10
68813;DHT22;55808;48.112;11.552;2023-03-01T00:15:11;1.00;90.20
68813;DHT22;55808;48.112;11.552;2023-03-01T00:17:36;1.00;90.40
68813;DHT22;55808;48.112;11.552;2023-03-01T00:20:02;1.00;90.20
68813;DHT22;55808;48.112;11.552;2023-03-01T00:22:28;1.00;90.20
68813;DHT22;55808;48.112;11.552;2023-03-01T00:24:53;0.90;90.40
68813;DHT22;55808;48.112;11.552;2023-03-01T00:27:19;0.90;90.10
68813;DHT22;55808;48.112;11.552;2023-03-01T00:29:45;0.90;90.20
68813;DHT22;55808;48.112;11.552;2023-03-01T00:32:10;0.90;90.20
68813;DHT22;55808;48.112;11.552;2023-03-01T00:34:36;0.90;90.20
68813;DHT22;55808;48.112;11.552;2023-03-01T00:37:01;2.10;90.60
68813;DHT22;55808;48.112;11.552;2023-03-01T00:39:31;0.90;90.30
68813;DHT22;55808;48.112;11.552;2023-03-01T00:41:57;0.90;90.40
68813;DHT22;55808;48.112;11.552;2023-03-01T00:44:22;0.90;90.20
68813;DHT22;55808;48.112;11.552;2023-03-01T00:46:48;0.90;90.30
68813;DHT22;55808;48.112;11.552;2023-03-01T00:49:13;0.90;90.30
68813;DHT22;55808;48.112;11.552;2023-03-01T00:51:39;0.90;90.30
68813;DHT22;55808;48.112;11.552;2023-03-01T00:54:09;1.10;90.50
68813;DHT22;55808;48.112;11.552;2023-03-01T00:56:35;0.90;90.60
68813;DHT22;55808;48.112;11.552;2023-03-01T00:59:00;0.80;90.50
68813;DHT22;55808;48.112;11.552;2023-03-01T01:01:27;0.80;90.80
68813;DHT22;55808;48.112;11.552;2023-03-01T01:04:01;0.90;90.60
68813;DHT22;55808;48.112;11.552;2023-03-01T01:06:29;0.90;90.60
68813;DHT22;55808;48.112;11.552;2023-03-01T01:08:55;0.90;91.10
68813;DHT22;55808;48.112;11.552;2023-03-01T01:11:21;0.90;90.80
68813;DHT22;55808;48.112;11.552;2023-03-01T01:13:47;0.80;90.70
68813;DHT22;55808;48.112;11.552;2023-03-01T01:16:13;0.80;90.70
68813;DHT22;55808;48.112;11.552;2023-03-01T01:18:39;0.80;90.70
68813;DHT22;55808;48.112;11.552;2023-03-01T01:21:07;0.80;90.60
68813;DHT22;55808;48.112;11.552;2023-03-01T01:23:32;0.80;90.70
68813;DHT22;55808;48.112;11.552;2023-03-01T01:26:02;0.80;90.80
68813;DHT22;55808;48.112;11.552;2023-03-01T01:28:28;0.80;90.70
68813;DHT22;55808;48.112;11.552;2023-03-01T01:30:54;0.80;90.90
68813;DHT22;55808;48.112;11.552;2023-03-01T01:33:19;0.80;90.40
68813;DHT22;55808;48.112;11.552;2023-03-01T01:35:45;0.80;90.70
68813;DHT22;55808;48.112;11.552;2023-03-01T01:38:11;0.90;90.90
68813;DHT22;55808;48.112;11.552;2023-03-01T01:40:42;0.80;90.60
68813;DHT22;55808;48.112;11.552;2023-03-01T01:43:12;0.80;90.70
68813;DHT22;55808;48.112;11.552;2023-03-01T01:45:41;0.80;90.70
68813;DHT22;55808;48.112;11.552;2023-03-01T01:48:16;0.80;90.40
68813;DHT22;55808;48.112;11.552;2023-03-01T01:50:42;0.80;90.80
68813;DHT22;55808;48.112;11.552;2023-03-01T01:53:14;0.80;90.30
68813;DHT22;55808;48.112;11.552;2023-03-01T01:55:43;0.70;90.40
68813;DHT22;55808;48.112;11.552;2023-03-01T01:58:11;0.80;90.40
68813;DHT22;55808;48.112;11.552;2023-03-01T02:00:37;1.40;90.70
68813;DHT22;55808;48.112;11.552;2023-03-01T02:03:14;0.70;90.30
68813;DHT22;55808;48.112;11.552;2023-03-01T02:08:29;0.70;90.40
68813;DHT22;55808;48.112;11.552;2023-03-01T02:10:55;0.60;90.30
68813;DHT22;55808;48.112;11.552;2023-03-01T02:13:21;2.30;90.80
68813;DHT22;55808;48.112;11.552;2023-03-01T02:15:47;2.50;91.20
68813;DHT22;55808;48.112;11.552;2023-03-01T02:18:13;0.70;90.40
68813;DHT22;55808;48.112;11.552;2023-03-01T02:23:23;0.60;90.10
68813;DHT22;55808;48.112;11.552;2023-03-01T02:30:52;0.70;90.30
68813;DHT22;55808;48.112;11.552;2023-03-01T02:33:37;0.70;90.10
68813;DHT22;55808;48.112;11.552;2023-03-01T02:36:06;1.00;90.40
68813;DHT22;55808;48.112;11.552;2023-03-01T02:38:32;0.60;90.40
68813;DHT22;55808;48.112;11.552;2023-03-01T02:40:58;0.60;90.40
68813;DHT22;55808;48.112;11.552;2023-03-01T02:43:24;0.70;91.10
68813;DHT22;55808;48.112;11.552;2023-03-01T02:45:52;0.70;90.60
68813;DHT22;55808;48.112;11.552;2023-03-01T02:48:19;0.70;90.60
68813;DHT22;55808;48.112;11.552;2023-03-01T02:56:14;0.60;90.20
68813;DHT22;55808;48.112;11.552;2023-03-01T02:58:40;0.60;90.40
68813;DHT22;55808;48.112;11.552;2023-03-01T03:01:11;0.60;90.50
68813;DHT22;55808;48.112;11.552;2023-03-01T03:03:38;0.60;90.60
68813;DHT22;55808;48.112;11.552;2023-03-01T03:06:04;0.60;90.40
68813;DHT22;55808;48.112;11.552;2023-03-01T03:08:29;0.60;90.40
68813;DHT22;55808;48.112;11.552;2023-03-01T03:10:55;0.60;90.50
68813;DHT22;55808;48.112;11.552;2023-03-01T03:13:21;0.60;90.00
68813;DHT22;55808;48.112;11.552;2023-03-01T03:15:47;0.50;90.00
68813;DHT22;55808;48.112;11.552;2023-03-01T03:18:14;0.60;90.00
68813;DHT22;55808;48.112;11.552;2023-03-01T03:20:40;0.60;90.20
68813;DHT22;55808;48.112;11.552;2023-03-01T03:23:07;0.60;90.50
68813;DHT22;55808;48.112;11.552;2023-03-01T03:25:32;0.80;90.40
68813;DHT22;55808;48.112;11.552;2023-03-01T03:27:58;0.60;90.60
68813;DHT22;55808;48.112;11.552;2023-03-01T03:30:31;0.60;90.50
68813;DHT22;55808;48.112;11.552;2023-03-01T03:32:58;0.50;90.40
68813;DHT22;55808;48.112;11.552;2023-03-01T03:37:50;0.50;90.50
68813;DHT22;55808;48.112;11.552;2023-03-01T03:40:28;2.80;91.40
68813;DHT22;55808;48.112;11.552;2023-03-01T03:42:54;1.60;90.90
68813;DHT22;55808;48.112;11.552;2023-03-01T03:45:20;0.40;90.30
68813;DHT22;55808;48.112;11.552;2023-03-01T03:47:46;0.40;90.30
68813;DHT22;55808;48.112;11.552;2023-03-01T03:50:12;0.50;90.30
68813;DHT22;55808;48.112;11.552;2023-03-01T03:52:37;0.50;90.40
68813;DHT22;55808;48.112;11.552;2023-03-01T03:55:03;1.40;90.60
68813;DHT22;55808;48.112;11.552;2023-03-01T03:57:34;0.40;90.20
68813;DHT22;55808;48.112;11.552;2023-03-01T04:00:00;0.40;90.10
68813;DHT22;55808;48.112;11.552;2023-03-01T04:02:25;0.40;90.00
68813;DHT22;55808;48.112;11.552;2023-03-01T04:04:51;0.40;89.90
68813;DHT22;55808;48.112;11.552;2023-03-01T04:07:17;0.30;90.00
68813;DHT22;55808;48.112;11.552;2023-03-01T04:09:43;0.40;90.20
68813;DHT22;55808;48.112;11.552;2023-03-01T04:12:09;0.30;90.00
68813;DHT22;55808;48.112;11.552;2023-03-01T04:14:35;0.30;89.90
68813;DHT22;55808;48.112;11.552;2023-03-01T04:17:00;0.30;90.00
68813;DHT22;55808;48.112;11.552;2023-03-01T04:19:26;0.30;90.10
68813;DHT22;55808;48.112;11.552;2023-03-01T04:21:52;0.30;90.10
68813;DHT22;55808;48.112;11.552;2023-03-01T04:24:18;0.30;90.40
68813;DHT22;55808;48.112;11.552;2023-03-01T04:26:43;0.30;90.20
68813;DHT22;55808;48.112;11.552;2023-03-01T04:29:09;0.30;90.40
68813;DHT22;55808;48.112;11.552;2023-03-01T04:31:35;0.30;90.40
68813;DHT22;55808;48.112;11.552;2023-03-01T04:34:00;0.20;90.10
68813;DHT22;55808;48.112;11.552;2023-03-01T04:36:27;1.40;90.90
68813;DHT22;55808;48.112;11.552;2023-03-01T04:38:52;0.30;90.10
68813;DHT22;55808;48.112;11.552;2023-03-01T04:41:19;0.10;89.50
68813;DHT22;55808;48.112;11.552;2023-03-01T04:43:45;0.10;89.20
68813;DHT22;55808;48.112;11.552;2023-03-01T04:46:12;0.00;89.60
68813;DHT22;55808;48.112;11.552;2023-03-01T04:48:38;0.00;89.30
68813;DHT22;55808;48.112;11.552;2023-03-01T04:51:04;0.00;89.30
68813;DHT22;55808;48.112;11.552;2023-03-01T04:53:31;0.00;89.90
68813;DHT22;55808;48.112;11.552;2023-03-01T04:55:57;0.00;90.10
68813;DHT22;55808;48.112;11.552;2023-03-01T04:58:23;0.10;90.00
68813;DHT22;55808;48.112;11.552;2023-03-01T05:00:49;0.90;90.20
68813;DHT22;55808;48.112;11.552;2023-03-01T05:03:14;0.00;89.60
68813;DHT22;55808;48.112;11.552;2023-03-01T05:05:43;0.00;90.00
68813;DHT22;55808;48.112;11.552;2023-03-01T05:08:09;1.80;90.80
68813;DHT22;55808;48.112;11.552;2023-03-01T05:10:43;-0.10;90.20
68813;DHT22;55808;48.112;11.552;2023-03-01T05:13:09;-0.10;89.80
68813;DHT22;55808;48.112;11.552;2023-03-01T05:15:34;-0.10;90.40
68813;DHT22;55808;48.112;11.552;2023-03-01T05:18:01;-0.10;90.20
68813;DHT22;55808;48.112;11.552;2023-03-01T05:20:28;-0.20;90.10
68813;DHT22;55808;48.112;11.552;2023-03-01T05:22:57;-0.20;90.20
68813;DHT22;55808;48.112;11.552;2023-03-01T05:25:23;-0.20;90.40
68813;DHT22;55808;48.112;11.552;2023-03-01T05:27:49;-0.20;90.20
68813;DHT22;55808;48.112;11.552;2023-03-01T05:30:15;-0.20;90.40
68813;DHT22;55808;48.112;11.552;2023-03-01T05:32:41;-0.20;90.40
68813;DHT22;55808;48.112;11.552;2023-03-01T05:35:08;-0.20;90.20
68813;DHT22;55808;48.112;11.552;2023-03-01T05:37:34;-0.30;90.10
68813;DHT22;55808;48.112;11.552;2023-03-01T05:40:01;0.20;90.60
68813;DHT22;55808;48.112;11.552;2023-03-01T05:42:26;-0.30;90.30
68813;DHT22;55808;48.112;11.552;2023-03-01T05:44:52;-0.30;90.20
68813;DHT22;55808;48.112;11.552;2023-03-01T05:47:17;-0.40;90.20
68813;DHT22;55808;48.112;11.552;2023-03-01T05:49:43;-0.30;90.50
68813;DHT22;55808;48.112;11.552;2023-03-01T05:52:08;-0.30;90.20
68813;DHT22;55808;48.112;11.552;2023-03-01T05:54:34;-0.40;90.30
68813;DHT22;55808;48.112;11.552;2023-03-01T05:56:59;-0.40;90.40
68813;DHT22;55808;48.112;11.552;2023-03-01T05:59:25;-0.40;90.60
68813;DHT22;55808;48.112;11.552;2023-03-01T06:01:50;-0.20;90.40
68813;DHT22;55808;48.112;11.552;2023-03-01T06:04:16;-0.40;90.40
68813;DHT22;55808;48.112;11.552;2023-03-01T06:06:41;-0.30;91.00
68813;DHT22;55808;48.112;11.552;2023-03-01T06:09:07;-0.20;90.70
68813;DHT22;55808;48.112;11.552;2023-03-01T06:11:34;0.10;90.70
68813;DHT22;55808;48.112;11.552;2023-03-01T06:14:00;-0.20;90.60
68813;DHT22;55808;48.112;11.552;2023-03-01T06:16:25;-0.20;90.60
68813;DHT22;55808;48.112;11.552;2023-03-01T06:18:51;-0.20;90.40
68813;DHT22;55808;48.112;11.552;2023-03-01T06:21:16;-0.20;90.50
68813;DHT22;55808;48.112;11.552;2023-03-01T06:23:42;-0.20;90.30
68813;DHT22;55808;48.112;11.552;2023-03-01T06:26:08;-0.30;90.20
68813;DHT22;55808;48.112;11.552;2023-03-01T06:28:33;-0.20;90.50
68813;DHT22;55808;48.112;11.552;2023-03-01T06:30:59;-0.20;90.40
68813;DHT22;55808;48.112;11.552;2023-03-01T06:33:25;-0.20;90.30
68813;DHT22;55808;48.112;11.552;2023-03-01T06:35:51;-0.20;90.30
68813;DHT22;55808;48.112;11.552;2023-03-01T06:38:16;-0.10;90.30
68813;DHT22;55808;48.112;11.552;2023-03-01T06:40:44;-0.20;90.10
68813;DHT22;55808;48.112;11.552;2023-03-01T06:43:13;-0.20;90.10
68813;DHT22;55808;48.112;11.552;2023-03-01T06:45:38;1.80;91.40
68813;DHT22;55808;48.112;11.552;2023-03-01T06:48:04;-0.20;90.10
68813;DHT22;55808;48.112;11.552;2023-03-01T06:50:30;-0.20;90.30
68813;DHT22;55808;48.112;11.552;2023-03-01T06:52:56;-0.10;90.30
68813;DHT22;55808;48.112;11.552;2023-03-01T06:55:22;-0.10;89.70
68813;DHT22;55808;48.112;11.552;2023-03-01T06:57:47;-0.20;89.90
68813;DHT22;55808;48.112;11.552;2023-03-01T07:00:13;-0.20;90.00
68813;DHT22;55808;48.112;11.552;2023-03-01T07:02:39;-0.20;90.20
68813;DHT22;55808;48.112;11.552;2023-03-01T07:05:04;-0.10;90.00
68813;DHT22;55808;48.112;11.552;2023-03-01T07:07:30;-0.10;90.50
68813;DHT22;55808;48.112;11.552;2023-03-01T07:09:55;-0.10;90.30
68813;DHT22;55808;48.112;11.552;2023-03-01T07:12:21;-0.10;90.00
68813;DHT22;55808;48.112;11.552;2023-03-01T07:14:46;-0.10;90.10
68813;DHT22;55808;48.112;11.552;2023-03-01T07:17:12;-0.10;90.00
68813;DHT22;55808;48.112;11.552;2023-03-01T07:19:37;-0.10;89.30
68813;DHT22;55808;48.112;11.552;2023-03-01T07:22:03;-0.10;90.00
68813;DHT22;55808;48.112;11.552;2023-03-01T07:24:29;-0.10;90.00
68813;DHT22;55808;48.112;11.552;2023-03-01T07:26:55;-0.10;89.60
68813;DHT22;55808;48.112;11.552;2023-03-01T07:29:20;-0.10;90.00
68813;DHT22;55808;48.112;11.552;2023-03-01T07:31:46;0.30;89.70
68813;DHT22;55808;48.112;11.552;2023-03-01T07:34:11;0.70;90.00
68813;DHT22;55808;48.112;11.552;2023-03-01T07:36:37;0.10;89.20
68813;DHT22;55808;48.112;11.552;2023-03-01T07:39:04;0.20;89.60
68813;DHT22;55808;48.112;11.552;2023-03-01T07:41:31;0.20;89.10
68813;DHT22;55808;48.112;11.552;2023-03-01T07:43:56;0.20;89.20
68813;DHT22;55808;48.112;11.552;2023-03-01T07:46:22;0.40;89.60
68813;DHT22;55808;48.112;11.552;2023-03-01T07:48:47;0.50;88.90
68813;DHT22;55808;48.112;11.552;2023-03-01T07:51:13;0.60;88.00
68813;DHT22;55808;48.112;11.552;2023-03-01T07:53:40;0.60;87.70
68813;DHT22;55808;48.112;11.552;2023-03-01T07:56:07;0.50;88.20
68813;DHT22;55808;48.112;11.552;2023-03-01T07:58:36;0.50;88.40
68813;DHT22;55808;48.112;11.552;2023-03-01T08:01:03;0.50;88.00
68813;DHT22;55808;48.112;11.552;2023-03-01T08:03:29;0.50;88.50
68813;DHT22;55808;48.112;11.552;2023-03-01T08:05:58;0.10;88.10
68813;DHT22;55808;48.112;11.552;2023-03-01T08:08:24;0.60;88.10
68813;DHT22;55808;48.112;11.552;2023-03-01T08:10:50;0.60;88.70
68813;DHT22;55808;48.112;11.552;2023-03-01T08:13:17;0.60;87.80
68813;DHT22;55808;48.112;11.552;2023-03-01T08:15:48;0.60;88.10
68813;DHT22;55808;48.112;11.552;2023-03-01T08:18:14;0.50;87.50
68813;DHT22;55808;48.112;11.552;2023-03-01T08:20:40;0.50;88.20
68813;DHT22;55808;48.112;11.552;2023-03-01T08:23:05;0.60;87.80
68813;DHT22;55808;48.112;11.552;2023-03-01T08:25:31;0.60;89.50
68813;DHT22;55808;48.112;11.552;2023-03-01T08:27:56;0.70;88.00
68813;DHT22;55808;48.112;11.552;2023-03-01T08:30:23;0.70;87.80
68813;DHT22;55808;48.112;11.552;2023-03-01T08:32:55;0.80;87.70
68813;DHT22;55808;48.112;11.552;2023-03-01T08:35:21;0.80;88.00
68813;DHT22;55808;48.112;11.552;2023-03-01T08:37:47;0.80;87.20
68813;DHT22;55808;48.112;11.552;2023-03-01T08:40:14;0.70;86.90
68813;DHT22;55808;48.112;11.552;2023-03-01T08:42:40;0.70;87.20
68813;DHT22;55808;48.112;11.552;2023-03-01T08:45:07;0.80;87.20
68813;DHT22;55808;48.112;11.552;2023-03-01T08:47:33;0.80;87.30
68813;DHT22;55808;48.112;11.552;2023-03-01T08:49:59;0.90;86.70
68813;DHT22;55808;48.112;11.552;2023-03-01T08:52:24;0.90;86.70
68813;DHT22;55808;48.112;11.552;2023-03-01T08:54:50;1.10;86.30
68813;DHT22;55808;48.112;11.552;2023-03-01T08:57:15;1.10;86.40
68813;DHT22;55808;48.112;11.552;2023-03-01T08:59:41;1.20;86.60
68813;DHT22;55808;48.112;11.552;2023-03-01T09:02:13;1.20;86.00
68813;DHT22;55808;48.112;11.552;2023-03-01T09:04:39;1.20;86.20
68813;DHT22;55808;48.112;11.552;2023-03-01T09:07:05;1.20;86.10
68813;DHT22;55808;48.112;11.552;2023-03-01T09:09:31;1.20;86.40
68813;DHT22;55808;48.112;11.552;2023-03-01T09:11:57;1.20;85.80
68813;DHT22;55808;48.112;11.552;2023-03-01T09:14:23;1.30;86.00
68813;DHT22;55808;48.112;11.552;2023-03-01T09:16:48;1.40;85.50
68813;DHT22;55808;48.112;11.552;2023-03-01T09:19:14;1.40;85.70
68813;DHT22;55808;48.112;11.552;2023-03-01T09:21:40;1.30;85.70
68813;DHT22;55808;48.112;11.552;2023-03-01T09:24:08;1.40;85.60
68813;DHT22;55808;48.112;11.552;2023-03-01T09:26:37;1.50;85.40
68813;DHT22;55808;48.112;11.552;2023-03-01T09:29:02;1.60;85.70
68813;DHT22;55808;48.112;11.552;2023-03-01T09:31:28;2.80;86.60
68813;DHT22;55808;48.112;11.552;2023-03-01T09:33:53;4.10;87.30
68813;DHT22;55808;48.112;11.552;2023-03-01T09:36:20;1.70;85.60
68813;DHT22;55808;48.112;11.552;2023-03-01T09:38:47;1.80;85.40
68813;DHT22;55808;48.112;11.552;2023-03-01T09:41:26;3.80;86.50
68813;DHT22;55808;48.112;11.552;2023-03-01T09:43:55;1.90;84.80
68813;DHT22;55808;48.112;11.552;2023-03-01T09:46:23;1.90;84.30
68813;DHT22;55808;48.112;11.552;2023-03-01T09:48:57;1.80;84.50
68813;DHT22;55808;48.112;11.552;2023-03-01T09:51:34;1.80;84.60
68813;DHT22;55808;48.112;11.552;2023-03-01T09:54:03;1.90;84.10
68813;DHT22;55808;48.112;11.552;2023-03-01T09:56:53;1.90;84.30
68813;DHT22;55808;48.112;11.552;2023-03-01T09:59:33;2.20;84.90
68813;DHT22;55808;48.112;11.552;2023-03-01T10:02:05;2.10;83.30
68813;DHT22;55808;48.112;11.552;2023-03-01T10:04:45;2.00;83.60
68813;DHT22;55808;48.112;11.552;2023-03-01T10:07:26;2.00;83.70
68813;DHT22;55808;48.112;11.552;2023-03-01T10:09:52;2.10;84.60
68813;DHT22;55808;48.112;11.552;2023-03-01T10:12:18;4.00;85.60
68813;DHT22;55808;48.112;11.552;2023-03-01T10:17:50;2.30;83.40
68813;DHT22;55808;48.112;11.552;2023-03-01T10:23:31;2.20;83.50
68813;DHT22;55808;48.112;11.552;2023-03-01T10:28:28;2.20;83.90
68813;DHT22;55808;48.112;11.552;2023-03-01T10:30:58;2.30;83.60
68813;DHT22;55808;48.112;11.552;2023-03-01T10:33:25;2.40;82.90
68813;DHT22;55808;48.112;11.552;2023-03-01T10:35:51;2.90;83.60
68813;DHT22;55808;48.112;11.552;2023-03-01T10:38:17;2.80;83.10
68813;DHT22;55808;48.112;11.552;2023-03-01T10:40:56;3.00;81.10
68813;DHT22;55808;48.112;11.552;2023-03-01T10:43:23;3.00;81.00
68813;DHT22;55808;48.112;11.552;2023-03-01T10:45:49;3.00;81.30
68813;DHT22;55808;48.112;11.552;2023-03-01T10:48:25;2.90;80.00
68813;DHT22;55808;48.112;11.552;2023-03-01T10:53:30;3.00;81.10
68813;DHT22;55808;48.112;11.552;2023-03-01T10:56:07;3.00;80.90
68813;DHT22;55808;48.112;11.552;2023-03-01T10:58:34;1.70;78.40
68813;DHT22;55808;48.112;11.552;2023-03-01T11:01:01;3.70;79.70
68813;DHT22;55808;48.112;11.552;2023-03-01T11:03:36;3.90;80.20
68813;DHT22;55808;48.112;11.552;2023-03-01T11:13:31;4.00;78.60
68813;DHT22;55808;48.112;11.552;2023-03-01T11:16:03;4.70;77.40
68813;DHT22;55808;48.112;11.552;2023-03-01T11:18:31;4.40;76.60
68813;DHT22;55808;48.112;11.552;2023-03-01T11:23:47;6.20;70.90
68813;DHT22;55808;48.112;11.552;2023-03-01T11:26:13;5.30;73.70
68813;DHT22;55808;48.112;11.552;2023-03-01T11:28:40;5.40;74.40
68813;DHT22;55808;48.112;11.552;2023-03-01T11:31:10;5.70;75.60
68813;DHT22;55808;48.112;11.552;2023-03-01T11:36:40;10.30;61.80
68813;DHT22;55808;48.112;11.552;2023-03-01T11:42:01;10.70;56.30
68813;DHT22;55808;48.112;11.552;2023-03-01T11:44:29;10.70;56.00
68813;DHT22;55808;48.112;11.552;2023-03-01T11:59:59;12.00;55.70
68813;DHT22;55808;48.112;11.552;2023-03-01T12:08:11;13.10;53.20
68813;DHT22;55808;48.112;11.552;2023-03-01T12:21:14;10.80;58.30
68813;DHT22;55808;48.112;11.552;2023-03-01T12:23:57;9.20;57.90
68813;DHT22;55808;48.112;11.552;2023-03-01T12:26:34;9.70;58.90
68813;DHT22;55808;48.112;11.552;2023-03-01T12:29:14;9.90;60.00
68813;DHT22;55808;48.112;11.552;2023-03-01T12:34:22;9.60;58.30
68813;DHT22;55808;48.112;11.552;2023-03-01T12:36:56;10.20;55.70
68813;DHT22;55808;48.112;11.552;2023-03-01T12:50:42;12.00;52.30
68813;DHT22;55808;48.112;11.552;2023-03-01T12:53:17;11.30;54.50
68813;DHT22;55808;48.112;11.552;2023-03-01T12:55:45;11.00;54.60
68813;DHT22;55808;48.112;11.552;2023-03-01T13:03:35;11.10;55.20
68813;DHT22;55808;48.112;11.552;2023-03-01T13:08:49;10.40;57.50
68813;DHT22;55808;48.112;11.552;2023-03-01T13:11:20;11.70;54.00
68813;DHT22;55808;48.112;11.552;2023-03-01T13:13:47;10.50;56.00
68813;DHT22;55808;48.112;11.552;2023-03-01T13:19:17;11.70;57.40
68813;DHT22;55808;48.112;11.552;2023-03-01T13:21:43;12.70;54.80
68813;DHT22;55808;48.112;11.552;2023-03-01T13:34:53;13.30;50.80
68813;DHT22;55808;48.112;11.552;2023-03-01T13:37:20;13.60;52.00
68813;DHT22;55808;48.112;11.552;2023-03-01T13:39:46;13.60;51.10
68813;DHT22;55808;48.112;11.552;2023-03-01T13:44:57;12.60;51.70
68813;DHT22;55808;48.112;11.552;2023-03-01T13:47:23;12.40;50.90
68813;DHT22;55808;48.112;11.552;2023-03-01T13:49:52;11.90;52.70
68813;DHT22;55808;48.112;11.552;2023-03-01T13:54:47;12.10;52.10
68813;DHT22;55808;48.112;11.552;2023-03-01T13:57:12;11.80;52.30
68813;DHT22;55808;48.112;11.552;2023-03-01T13:59:46;11.90;53.00
68813;DHT22;55808;48.112;11.552;2023-03-01T14:02:12;12.00;52.80
68813;DHT22;55808;48.112;11.552;2023-03-01T14:04:38;12.10;54.30
68813;DHT22;55808;48.112;11.552;2023-03-01T14:07:17;11.70;53.70
68813;DHT22;55808;48.112;11.552;2023-03-01T14:09:43;11.30;53.70
68813;DHT22;55808;48.112;11.552;2023-03-01T14:14:59;11.00;54.50
68813;DHT22;55808;48.112;11.552;2023-03-01T14:20:07;11.20;54.70
68813;DHT22;55808;48.112;11.552;2023-03-01T14:22:34;10.80;55.20
68813;DHT22;55808;48.112;11.552;2023-03-01T14:25:01;10.50;56.20
68813;DHT22;55808;48.112;11.552;2023-03-01T14:27:30;10.60;56.60
68813;DHT22;55808;48.112;11.552;2023-03-01T14:29:58;10.50;55.50
68813;DHT22;55808;48.112;11.552;2023-03-01T14:32:25;10.10;56.50
68813;DHT22;55808;48.112;11.552;2023-03-01T14:34:51;10.00;58.20
68813;DHT22;55808;48.112;11.552;2023-03-01T14:37:21;9.70;58.20
68813;DHT22;55808;48.112;11.552;2023-03-01T14:39:47;9.80;59.50
68813;DHT22;55808;48.112;11.552;2023-03-01T14:42:13;9.70;59.40
68813;DHT22;55808;48.112;11.552;2023-03-01T14:44:40;9.40;59.80
68813;DHT22;55808;48.112;11.552;2023-03-01T14:47:06;9.30;59.90
68813;DHT22;55808;48.112;11.552;2023-03-01T14:49:32;9.30;61.10
68813;DHT22;55808;48.112;11.552;2023-03-01T14:52:02;9.80;60.00
68813;DHT22;55808;48.112;11.552;2023-03-01T14:54:39;9.80;59.70
68813;DHT22;55808;48.112;11.552;2023-03-01T14:57:12;9.60;59.90
68813;DHT22;55808;48.112;11.552;2023-03-01T14:59:38;9.50;60.20
68813;DHT22;55808;48.112;11.552;2023-03-01T15:02:04;9.30;60.80
68813;DHT22;55808;48.112;11.552;2023-03-01T15:04:30;9.10;62.00
68813;DHT22;55808;48.112;11.552;2023-03-01T15:07:01;8.60;61.70
68813;DHT22;55808;48.112;11.552;2023-03-01T15:09:30;8.50;62.60
68813;DHT22;55808;48.112;11.552;2023-03-01T15:11:57;8.50;63.10
68813;DHT22;55808;48.112;11.552;2023-03-01T15:14:56;8.60;62.60
68813;DHT22;55808;48.112;11.552;2023-03-01T15:20:04;8.90;62.50
68813;DHT22;55808;48.112;11.552;2023-03-01T15:22:31;8.80;63.60
68813;DHT22;55808;48.112;11.552;2023-03-01T15:24:56;8.80;63.60
68813;DHT22;55808;48.112;11.552;2023-03-01T15:27:23;8.90;63.00
68813;DHT22;55808;48.112;11.552;2023-03-01T15:29:50;8.60;64.50
68813;DHT22;55808;48.112;11.552;2023-03-01T15:34:48;8.50;65.20
68813;DHT22;55808;48.112;11.552;2023-03-01T15:39:57;8.20;65.60
68813;DHT22;55808;48.112;11.552;2023-03-01T15:45:11;8.10;65.30
68813;DHT22;55808;48.112;11.552;2023-03-01T15:47:46;7.80;65.60
68813;DHT22;55808;48.112;11.552;2023-03-01T15:50:20;7.60;66.90
68813;DHT22;55808;48.112;11.552;2023-03-01T15:52:46;7.60;67.40
68813;DHT22;55808;48.112;11.552;2023-03-01T15:55:19;7.60;67.30
68813;DHT22;55808;48.112;11.552;2023-03-01T15:57:45;7.40;67.40
68813;DHT22;55808;48.112;11.552;2023-03-01T16:00:11;7.30;68.10
68813;DHT22;55808;48.112;11.552;2023-03-01T16:02:41;7.10;68.40
68813;DHT22;55808;48.112;11.552;2023-03-01T16:05:29;7.00;69.00
68813;DHT22;55808;48.112;11.552;2023-03-01T16:07:55;6.90;69.50
68813;DHT22;55808;48.112;11.552;2023-03-01T16:10:21;6.70;69.90
68813;DHT22;55808;48.112;11.552;2023-03-01T16:12:49;6.80;70.20
68813;DHT22;55808;48.112;11.552;2023-03-01T16:15:17;6.50;71.00
68813;DHT22;55808;48.112;11.552;2023-03-01T16:17:43;6.50;72.30
68813;DHT22;55808;48.112;11.552;2023-03-01T16:20:09;6.40;73.10
68813;DHT22;55808;48.112;11.552;2023-03-01T16:22:34;6.20;72.20
68813;DHT22;55808;48.112;11.552;2023-03-01T16:25:00;6.10;73.00
68813;DHT22;55808;48.112;11.552;2023-03-01T16:27:27;6.00;73.10
68813;DHT22;55808;48.112;11.552;2023-03-01T16:29:53;5.90;74.00
68813;DHT22;55808;48.112;11.552;2023-03-01T16:32:18;5.80;74.30
68813;DHT22;55808;48.112;11.552;2023-03-01T16:34:44;5.60;75.00
68813;DHT22;55808;48.112;11.552;2023-03-01T16:37:09;5.50;75.00
68813;DHT22;55808;48.112;11.552;2023-03-01T16:39:37;5.40;75.80
68813;DHT22;55808;48.112;11.552;2023-03-01T16:42:03;5.30;76.20
68813;DHT22;55808;48.112;11.552;2023-03-01T16:44:29;5.20;76.80
68813;DHT22;55808;48.112;11.552;2023-03-01T16:46:54;5.10;77.10
68813;DHT22;55808;48.112;11.552;2023-03-01T16:49:20;5.10;77.70
68813;DHT22;55808;48.112;11.552;2023-03-01T16:51:45;5.00;78.50
68813;DHT22;55808;48.112;11.552;2023-03-01T16:54:11;4.90;79.20
68813;DHT22;55808;48.112;11.552;2023-03-01T16:56:36;4.80;78.70
68813;DHT22;55808;48.112;11.552;2023-03-01T16:59:03;4.80;79.20
68813;DHT22;55808;48.112;11.552;2023-03-01T17:01:29;4.70;79.40
68813;DHT22;55808;48.112;11.552;2023-03-01T17:04:03;4.70;79.80
68813;DHT22;55808;48.112;11.552;2023-03-01T17:06:28;4.60;80.50
68813;DHT22;55808;48.112;11.552;2023-03-01T17:08:54;4.40;80.40
68813;DHT22;55808;48.112;11.552;2023-03-01T17:11:20;4.50;80.40
68813;DHT22;55808;48.112;11.552;2023-03-01T17:13:45;4.30;80.50
68813;DHT22;55808;48.112;11.552;2023-03-01T17:16:12;4.50;83.10
68813;DHT22;55808;48.112;11.552;2023-03-01T17:18:38;3.90;82.70
68813;DHT22;55808;48.112;11.552;2023-03-01T17:21:04;3.80;83.40
68813;DHT22;55808;48.112;11.552;2023-03-01T17:23:30;3.70;84.10
68813;DHT22;55808;48.112;11.552;2023-03-01T17:25:56;3.70;84.40
68813;DHT22;55808;48.112;11.552;2023-03-01T17:28:23;3.60;85.30
68813;DHT22;55808;48.112;11.552;2023-03-01T17:30:49;3.50;84.70
68813;DHT22;55808;48.112;11.552;2023-03-01T17:33:15;3.50;85.50
68813;DHT22;55808;48.112;11.552;2023-03-01T17:35:40;3.40;85.80
68813;DHT22;55808;48.112;11.552;2023-03-01T17:38:06;3.30;85.60
68813;DHT22;55808;48.112;11.552;2023-03-01T17:40:32;3.30;86.00